SBI3201 UNNT-UNKL
Flight info
| Callsign | SBI3201 |
|---|---|
| Flight time | 1h 17m |
| Altitude | 35000 |
| Route | OGATI1K OGATI A308 RISPA A366 KESED A309 ROTLI/K0809F270 A300 RANET RANET2S |
| Aircraft | A320/M-SDE3FGHIRWY/LB1 |
Departure
| Time | 2026-04-27 12:44 |
|---|---|
| Airport | Novosibirsk Tolmachevo Airport (UNNT) |
Arrival
| Time | 2026-04-27 14:01 |
|---|---|
| Airport | Krasnoyarsk International Airport (UNKL) |
| Time | Latitude | Longitude | Altitude | Speed | Heading |
|---|---|---|---|---|---|
| 2026-04-27 12:21 | 55.01146 | 82.67200 | 373 ft | 0 kts | 171° |
| 2026-04-27 12:32 | 55.01147 | 82.67200 | 372 ft | 0 kts | 171° |
| 2026-04-27 12:38 | 55.01113 | 82.67231 | 372 ft | 7 kts | 121° |
| 2026-04-27 12:38 | 55.01107 | 82.67304 | 372 ft | 6 kts | 91° |
| 2026-04-27 12:39 | 55.01108 | 82.67364 | 372 ft | 4 kts | 88° |
| 2026-04-27 12:39 | 55.01118 | 82.67442 | 372 ft | 8 kts | 60° |
| 2026-04-27 12:39 | 55.01154 | 82.67495 | 372 ft | 6 kts | 33° |
| 2026-04-27 12:39 | 55.01187 | 82.67532 | 372 ft | 5 kts | 31° |
| 2026-04-27 12:40 | 55.01215 | 82.67560 | 372 ft | 4 kts | 28° |
| 2026-04-27 12:40 | 55.01236 | 82.67581 | 372 ft | 3 kts | 30° |
| 2026-04-27 12:40 | 55.01268 | 82.67615 | 372 ft | 13 kts | 31° |
| 2026-04-27 12:40 | 55.01344 | 82.67695 | 372 ft | 12 kts | 31° |
| 2026-04-27 12:41 | 55.01425 | 82.67772 | 371 ft | 7 kts | 16° |
| 2026-04-27 12:41 | 55.01470 | 82.67747 | 370 ft | 7 kts | 314° |
| 2026-04-27 12:41 | 55.01480 | 82.67672 | 371 ft | 7 kts | 266° |
| 2026-04-27 12:41 | 55.01479 | 82.67657 | 370 ft | 0 kts | 264° |
| 2026-04-27 12:43 | 55.01479 | 82.67655 | 370 ft | 2 kts | 264° |
| 2026-04-27 12:43 | 55.01462 | 82.67450 | 372 ft | 45 kts | 260° |
| 2026-04-27 12:43 | 55.01378 | 82.66508 | 374 ft | 110 kts | 261° |
| 2026-04-27 12:44 | 55.01234 | 82.64889 | 372 ft | 158 kts | 262° |
| 2026-04-27 12:44 | 55.01062 | 82.62858 | 786 ft | 170 kts | 262° |
| 2026-04-27 12:44 | 55.00877 | 82.60838 | 1630 ft | 168 kts | 263° |
| 2026-04-27 12:44 | 55.00689 | 82.58741 | 2029 ft | 186 kts | 263° |
| 2026-04-27 12:45 | 55.00482 | 82.56403 | 2538 ft | 201 kts | 263° |
| 2026-04-27 12:45 | 55.00288 | 82.53959 | 2951 ft | 207 kts | 271° |
| 2026-04-27 12:45 | 55.00767 | 82.51571 | 3005 ft | 218 kts | 311° |
| 2026-04-27 12:45 | 55.02091 | 82.50320 | 3016 ft | 224 kts | 348° |
| 2026-04-27 12:46 | 55.03666 | 82.50177 | 3013 ft | 228 kts | 360° |
| 2026-04-27 12:46 | 55.05253 | 82.50374 | 3051 ft | 231 kts | 2° |
| 2026-04-27 12:46 | 55.06901 | 82.50629 | 3565 ft | 248 kts | 2° |
| 2026-04-27 12:46 | 55.08662 | 82.50858 | 4324 ft | 257 kts | 1° |
| 2026-04-27 12:47 | 55.10466 | 82.51091 | 5255 ft | 262 kts | 6° |
| 2026-04-27 12:47 | 55.12205 | 82.52161 | 6144 ft | 272 kts | 29° |
| 2026-04-27 12:47 | 55.13598 | 82.54436 | 7022 ft | 280 kts | 54° |
| 2026-04-27 12:47 | 55.14304 | 82.57632 | 7856 ft | 288 kts | 82° |
| 2026-04-27 12:48 | 55.14151 | 82.61135 | 8713 ft | 293 kts | 102° |
| 2026-04-27 12:48 | 55.13702 | 82.64637 | 9573 ft | 297 kts | 103° |
| 2026-04-27 12:48 | 55.13235 | 82.68189 | 10387 ft | 302 kts | 103° |
| 2026-04-27 12:48 | 55.12744 | 82.71896 | 10736 ft | 325 kts | 103° |
| 2026-04-27 12:49 | 55.12216 | 82.75878 | 10982 ft | 348 kts | 103° |
| 2026-04-27 12:49 | 55.11655 | 82.80135 | 11245 ft | 369 kts | 103° |
| 2026-04-27 12:49 | 55.11076 | 82.84562 | 11813 ft | 378 kts | 104° |
| 2026-04-27 12:49 | 55.10486 | 82.89073 | 12466 ft | 384 kts | 104° |
| 2026-04-27 12:50 | 55.09885 | 82.93656 | 13137 ft | 390 kts | 104° |
| 2026-04-27 12:50 | 55.09277 | 82.98290 | 13799 ft | 396 kts | 104° |
| 2026-04-27 12:50 | 55.08651 | 83.03028 | 14397 ft | 402 kts | 105° |
| 2026-04-27 12:50 | 55.08017 | 83.07814 | 14996 ft | 407 kts | 105° |
| 2026-04-27 12:51 | 55.07374 | 83.12651 | 15606 ft | 411 kts | 105° |
| 2026-04-27 12:51 | 55.06726 | 83.17526 | 16206 ft | 415 kts | 105° |
| 2026-04-27 12:51 | 55.06068 | 83.22458 | 16795 ft | 419 kts | 105° |
| 2026-04-27 12:51 | 55.05404 | 83.27427 | 17389 ft | 423 kts | 105° |
| 2026-04-27 12:52 | 55.04729 | 83.32442 | 17979 ft | 426 kts | 106° |
| 2026-04-27 12:52 | 55.04052 | 83.37436 | 18533 ft | 430 kts | 106° |
| 2026-04-27 12:52 | 55.03359 | 83.42530 | 19037 ft | 433 kts | 106° |
| 2026-04-27 12:52 | 55.02665 | 83.47650 | 19552 ft | 436 kts | 106° |
| 2026-04-27 12:53 | 55.01252 | 83.58002 | 20548 ft | 442 kts | 107° |
| 2026-04-27 12:53 | 55.00529 | 83.63239 | 21035 ft | 445 kts | 107° |
| 2026-04-27 12:53 | 54.99801 | 83.68487 | 21521 ft | 448 kts | 107° |
| 2026-04-27 12:54 | 54.99068 | 83.73769 | 21980 ft | 451 kts | 108° |
| 2026-04-27 12:54 | 54.98328 | 83.79091 | 22442 ft | 454 kts | 108° |
| 2026-04-27 12:54 | 54.97581 | 83.84454 | 22885 ft | 457 kts | 108° |
| 2026-04-27 12:54 | 54.96827 | 83.89842 | 23339 ft | 460 kts | 108° |
| 2026-04-27 12:55 | 54.96066 | 83.95260 | 23768 ft | 463 kts | 109° |
| 2026-04-27 12:55 | 54.95297 | 84.00719 | 24129 ft | 465 kts | 109° |
| 2026-04-27 12:55 | 54.94521 | 84.06200 | 24487 ft | 468 kts | 109° |
| 2026-04-27 12:55 | 54.93738 | 84.11700 | 24847 ft | 470 kts | 109° |
| 2026-04-27 12:56 | 54.92947 | 84.17237 | 25202 ft | 473 kts | 109° |
| 2026-04-27 12:56 | 54.92152 | 84.22801 | 25556 ft | 475 kts | 109° |
| 2026-04-27 12:56 | 54.91351 | 84.28393 | 25907 ft | 478 kts | 110° |
| 2026-04-27 12:56 | 54.90541 | 84.34000 | 26247 ft | 480 kts | 110° |
| 2026-04-27 12:57 | 54.89725 | 84.39639 | 26574 ft | 482 kts | 110° |
| 2026-04-27 12:57 | 54.88902 | 84.45298 | 26891 ft | 485 kts | 110° |
| 2026-04-27 12:57 | 54.88073 | 84.50983 | 27199 ft | 487 kts | 110° |
| 2026-04-27 12:57 | 54.87238 | 84.56696 | 27503 ft | 489 kts | 111° |
| 2026-04-27 12:58 | 54.86396 | 84.62442 | 27798 ft | 492 kts | 111° |
| 2026-04-27 12:58 | 54.85697 | 84.68288 | 28098 ft | 500 kts | 103° |
| 2026-04-27 12:58 | 54.85355 | 84.74322 | 28383 ft | 505 kts | 101° |
| 2026-04-27 12:58 | 54.85047 | 84.80334 | 28674 ft | 507 kts | 101° |
| 2026-04-27 12:59 | 54.84730 | 84.86441 | 28976 ft | 508 kts | 101° |
| 2026-04-27 12:59 | 54.84409 | 84.92549 | 29385 ft | 508 kts | 101° |
| 2026-04-27 12:59 | 54.84087 | 84.98635 | 29800 ft | 507 kts | 101° |
| 2026-04-27 12:59 | 54.83762 | 85.04724 | 30204 ft | 507 kts | 102° |
| 2026-04-27 13:00 | 54.83431 | 85.10807 | 30542 ft | 506 kts | 102° |
| 2026-04-27 13:00 | 54.83284 | 85.16938 | 30857 ft | 513 kts | 93° |
| 2026-04-27 13:00 | 54.83687 | 85.23115 | 31178 ft | 519 kts | 82° |
| 2026-04-27 13:00 | 54.84686 | 85.29145 | 31497 ft | 523 kts | 71° |
| 2026-04-27 13:01 | 54.86266 | 85.34842 | 31836 ft | 525 kts | 59° |
| 2026-04-27 13:01 | 54.88370 | 85.40023 | 32171 ft | 524 kts | 49° |
| 2026-04-27 13:01 | 54.90856 | 85.44641 | 32519 ft | 523 kts | 44° |
| 2026-04-27 13:01 | 54.93380 | 85.49182 | 32876 ft | 522 kts | 44° |
| 2026-04-27 13:02 | 54.95902 | 85.53730 | 33234 ft | 521 kts | 44° |
| 2026-04-27 13:02 | 54.98407 | 85.58256 | 33583 ft | 520 kts | 44° |
| 2026-04-27 13:02 | 55.00900 | 85.62777 | 33934 ft | 520 kts | 44° |
| 2026-04-27 13:02 | 55.03414 | 85.67355 | 34284 ft | 519 kts | 45° |
| 2026-04-27 13:03 | 55.05898 | 85.71895 | 34594 ft | 517 kts | 45° |
| 2026-04-27 13:03 | 55.08375 | 85.76420 | 34923 ft | 516 kts | 45° |
| 2026-04-27 13:03 | 55.10845 | 85.80935 | 35123 ft | 515 kts | 45° |
| 2026-04-27 13:03 | 55.13334 | 85.85491 | 35168 ft | 516 kts | 45° |
| 2026-04-27 13:04 | 55.18256 | 85.94520 | 35164 ft | 516 kts | 45° |
| 2026-04-27 13:04 | 55.23218 | 86.03659 | 35163 ft | 516 kts | 45° |
| 2026-04-27 13:05 | 55.27566 | 86.13581 | 35170 ft | 517 kts | 61° |
| 2026-04-27 13:05 | 55.30554 | 86.25026 | 35162 ft | 517 kts | 68° |
| 2026-04-27 13:06 | 55.33412 | 86.36633 | 35166 ft | 517 kts | 68° |
| 2026-04-27 13:06 | 55.36255 | 86.48220 | 35166 ft | 517 kts | 68° |
| 2026-04-27 13:07 | 55.39069 | 86.59840 | 35172 ft | 517 kts | 68° |
| 2026-04-27 13:07 | 55.41875 | 86.71511 | 35168 ft | 517 kts | 68° |
| 2026-04-27 13:08 | 55.44666 | 86.83157 | 35166 ft | 517 kts | 68° |
| 2026-04-27 13:08 | 55.47436 | 86.94781 | 35172 ft | 517 kts | 68° |
| 2026-04-27 13:09 | 55.50212 | 87.06485 | 35165 ft | 517 kts | 68° |
| 2026-04-27 13:09 | 55.52980 | 87.18197 | 35160 ft | 517 kts | 69° |
| 2026-04-27 13:10 | 55.55736 | 87.29924 | 35167 ft | 517 kts | 69° |
| 2026-04-27 13:10 | 55.58474 | 87.41663 | 35168 ft | 517 kts | 69° |
| 2026-04-27 13:11 | 55.61200 | 87.53428 | 35158 ft | 517 kts | 69° |
| 2026-04-27 13:11 | 55.63921 | 87.65202 | 35165 ft | 517 kts | 69° |
| 2026-04-27 13:12 | 55.66640 | 87.77014 | 35155 ft | 517 kts | 69° |
| 2026-04-27 13:12 | 55.69331 | 87.88822 | 35158 ft | 517 kts | 69° |
| 2026-04-27 13:13 | 55.72019 | 88.00658 | 35159 ft | 517 kts | 69° |
| 2026-04-27 13:13 | 55.74678 | 88.12431 | 35152 ft | 517 kts | 70° |
| 2026-04-27 13:14 | 55.77346 | 88.24294 | 35160 ft | 517 kts | 70° |
| 2026-04-27 13:14 | 55.80004 | 88.36182 | 35154 ft | 517 kts | 70° |
| 2026-04-27 13:15 | 55.82645 | 88.48077 | 35156 ft | 517 kts | 70° |
| 2026-04-27 13:15 | 55.85272 | 88.59986 | 35154 ft | 517 kts | 70° |
| 2026-04-27 13:16 | 55.87893 | 88.71918 | 35155 ft | 517 kts | 70° |
| 2026-04-27 13:16 | 55.90503 | 88.83851 | 35154 ft | 517 kts | 70° |
| 2026-04-27 13:17 | 55.93093 | 88.95805 | 35153 ft | 517 kts | 70° |
| 2026-04-27 13:17 | 55.95673 | 89.07773 | 35156 ft | 516 kts | 70° |
| 2026-04-27 13:18 | 55.96937 | 89.13679 | 34937 ft | 515 kts | 71° |
| 2026-04-27 13:18 | 55.98210 | 89.19668 | 34702 ft | 516 kts | 71° |
| 2026-04-27 13:18 | 55.99481 | 89.25676 | 34468 ft | 518 kts | 71° |
| 2026-04-27 13:18 | 56.00754 | 89.31701 | 34233 ft | 519 kts | 71° |
| 2026-04-27 13:19 | 56.03300 | 89.43757 | 34402 ft | 519 kts | 71° |
| 2026-04-27 13:19 | 56.05835 | 89.55854 | 34411 ft | 519 kts | 71° |
| 2026-04-27 13:20 | 56.08340 | 89.67944 | 34163 ft | 519 kts | 71° |
| 2026-04-27 13:20 | 56.09603 | 89.74074 | 32750 ft | 530 kts | 72° |
| 2026-04-27 13:20 | 56.10889 | 89.80316 | 31717 ft | 536 kts | 72° |
| 2026-04-27 13:21 | 56.12180 | 89.86572 | 30915 ft | 534 kts | 72° |
| 2026-04-27 13:21 | 56.13464 | 89.92783 | 29617 ft | 529 kts | 72° |
| 2026-04-27 13:21 | 56.14729 | 89.98913 | 28463 ft | 510 kts | 72° |
| 2026-04-27 13:21 | 56.15932 | 90.04659 | 28328 ft | 484 kts | 72° |
| 2026-04-27 13:22 | 56.17110 | 90.10394 | 28081 ft | 498 kts | 73° |
| 2026-04-27 13:22 | 56.18528 | 90.16094 | 27813 ft | 518 kts | 60° |
| 2026-04-27 13:22 | 56.20752 | 90.21245 | 27454 ft | 527 kts | 44° |
| 2026-04-27 13:22 | 56.23638 | 90.25292 | 26957 ft | 526 kts | 27° |
| 2026-04-27 13:23 | 56.26966 | 90.27877 | 26518 ft | 519 kts | 11° |
| 2026-04-27 13:23 | 56.30489 | 90.28831 | 26141 ft | 506 kts | 354° |
| 2026-04-27 13:23 | 56.33918 | 90.28131 | 25771 ft | 488 kts | 338° |
| 2026-04-27 13:23 | 56.36996 | 90.25892 | 25410 ft | 468 kts | 321° |
| 2026-04-27 13:24 | 56.39499 | 90.22391 | 24929 ft | 442 kts | 304° |
| 2026-04-27 13:24 | 56.41208 | 90.17944 | 24623 ft | 423 kts | 287° |
| 2026-04-27 13:24 | 56.42040 | 90.12980 | 24320 ft | 405 kts | 270° |
| 2026-04-27 13:24 | 56.41947 | 90.08015 | 24022 ft | 390 kts | 253° |
| 2026-04-27 13:25 | 56.40975 | 90.03543 | 23718 ft | 381 kts | 236° |
| 2026-04-27 13:25 | 56.39232 | 89.99987 | 23368 ft | 379 kts | 219° |
| 2026-04-27 13:25 | 56.36914 | 89.97737 | 23002 ft | 384 kts | 201° |
| 2026-04-27 13:25 | 56.34245 | 89.97030 | 22640 ft | 395 kts | 184° |
| 2026-04-27 13:26 | 56.31512 | 89.97980 | 22284 ft | 410 kts | 167° |
| 2026-04-27 13:26 | 56.29010 | 90.00507 | 21939 ft | 428 kts | 149° |
| 2026-04-27 13:26 | 56.26939 | 90.04491 | 21587 ft | 446 kts | 132° |
| 2026-04-27 13:26 | 56.25555 | 90.09581 | 21242 ft | 462 kts | 114° |
| 2026-04-27 13:27 | 56.24774 | 90.15228 | 20899 ft | 466 kts | 109° |
| 2026-04-27 13:27 | 56.24099 | 90.20914 | 20566 ft | 467 kts | 105° |
| 2026-04-27 13:27 | 56.23644 | 90.26708 | 20234 ft | 467 kts | 103° |
| 2026-04-27 13:27 | 56.23217 | 90.32487 | 19907 ft | 466 kts | 103° |
| 2026-04-27 13:28 | 56.23093 | 90.38331 | 19623 ft | 472 kts | 89° |
| 2026-04-27 13:28 | 56.23794 | 90.44120 | 19373 ft | 477 kts | 73° |
| 2026-04-27 13:28 | 56.24940 | 90.49724 | 19126 ft | 477 kts | 72° |
| 2026-04-27 13:28 | 56.26079 | 90.55318 | 18897 ft | 475 kts | 73° |
| 2026-04-27 13:29 | 56.26940 | 90.61016 | 18652 ft | 470 kts | 82° |
| 2026-04-27 13:29 | 56.27277 | 90.64847 | 18493 ft | 467 kts | 88° |
| 2026-04-27 13:29 | 56.27468 | 90.70645 | 18232 ft | 463 kts | 92° |
| 2026-04-27 13:29 | 56.27581 | 90.76415 | 17958 ft | 461 kts | 92° |
| 2026-04-27 13:30 | 56.27702 | 90.82167 | 17678 ft | 459 kts | 92° |
| 2026-04-27 13:30 | 56.27829 | 90.87888 | 17413 ft | 457 kts | 92° |
| 2026-04-27 13:30 | 56.27959 | 90.93605 | 17146 ft | 455 kts | 91° |
| 2026-04-27 13:30 | 56.28093 | 90.99277 | 16880 ft | 453 kts | 91° |
| 2026-04-27 13:31 | 56.28222 | 91.04939 | 16614 ft | 452 kts | 91° |
| 2026-04-27 13:31 | 56.28334 | 91.10573 | 16358 ft | 449 kts | 94° |
| 2026-04-27 13:31 | 56.28169 | 91.16153 | 16096 ft | 443 kts | 102° |
| 2026-04-27 13:31 | 56.27734 | 91.21620 | 15843 ft | 441 kts | 103° |
| 2026-04-27 13:32 | 56.27285 | 91.27074 | 15588 ft | 440 kts | 103° |
| 2026-04-27 13:32 | 56.26836 | 91.32517 | 15335 ft | 439 kts | 103° |
| 2026-04-27 13:32 | 56.26391 | 91.37949 | 15155 ft | 438 kts | 103° |
| 2026-04-27 13:32 | 56.25946 | 91.43369 | 15086 ft | 438 kts | 103° |
| 2026-04-27 13:33 | 56.25500 | 91.48777 | 15007 ft | 437 kts | 103° |
| 2026-04-27 13:33 | 56.25047 | 91.54192 | 14939 ft | 437 kts | 103° |
| 2026-04-27 13:33 | 56.24590 | 91.59590 | 14855 ft | 437 kts | 103° |
| 2026-04-27 13:33 | 56.24175 | 91.65001 | 14774 ft | 439 kts | 99° |
| 2026-04-27 13:34 | 56.24154 | 91.70497 | 14699 ft | 443 kts | 89° |
| 2026-04-27 13:34 | 56.24617 | 91.75995 | 14624 ft | 445 kts | 80° |
| 2026-04-27 13:34 | 56.25254 | 91.81447 | 14559 ft | 445 kts | 81° |
| 2026-04-27 13:34 | 56.25878 | 91.86890 | 14377 ft | 445 kts | 81° |
| 2026-04-27 13:35 | 56.26487 | 91.92253 | 13940 ft | 439 kts | 81° |
| 2026-04-27 13:35 | 56.27080 | 91.97554 | 13288 ft | 436 kts | 81° |
| 2026-04-27 13:35 | 56.27668 | 92.02882 | 12669 ft | 432 kts | 81° |
| 2026-04-27 13:35 | 56.28246 | 92.08165 | 12034 ft | 428 kts | 80° |
| 2026-04-27 13:36 | 56.28822 | 92.13407 | 11373 ft | 425 kts | 80° |
| 2026-04-27 13:36 | 56.29262 | 92.18602 | 11041 ft | 411 kts | 88° |
| 2026-04-27 13:36 | 56.29227 | 92.23604 | 10916 ft | 390 kts | 98° |
| 2026-04-27 13:36 | 56.28934 | 92.28341 | 10784 ft | 369 kts | 99° |
| 2026-04-27 13:37 | 56.28665 | 92.32765 | 10658 ft | 342 kts | 99° |
| 2026-04-27 13:37 | 56.28414 | 92.36902 | 10362 ft | 326 kts | 100° |
| 2026-04-27 13:37 | 56.28163 | 92.40916 | 9968 ft | 320 kts | 100° |
| 2026-04-27 13:37 | 56.27908 | 92.44872 | 9827 ft | 317 kts | 100° |
| 2026-04-27 13:38 | 56.27650 | 92.48801 | 9697 ft | 316 kts | 100° |
| 2026-04-27 13:38 | 56.27391 | 92.52714 | 9555 ft | 315 kts | 100° |
| 2026-04-27 13:38 | 56.27131 | 92.56624 | 9170 ft | 315 kts | 99° |
| 2026-04-27 13:38 | 56.26871 | 92.60524 | 8706 ft | 310 kts | 99° |
| 2026-04-27 13:39 | 56.26621 | 92.64326 | 8175 ft | 304 kts | 98° |
| 2026-04-27 13:39 | 56.26315 | 92.67489 | 7793 ft | 298 kts | 107° |
| 2026-04-27 13:39 | 56.25588 | 92.70942 | 7322 ft | 293 kts | 115° |
| 2026-04-27 13:39 | 56.24772 | 92.74281 | 6858 ft | 290 kts | 115° |
| 2026-04-27 13:40 | 56.23972 | 92.77596 | 6397 ft | 287 kts | 114° |
| 2026-04-27 13:40 | 56.22951 | 92.80599 | 5928 ft | 286 kts | 136° |
| 2026-04-27 13:40 | 56.21311 | 92.82510 | 5470 ft | 280 kts | 164° |
| 2026-04-27 13:40 | 56.19412 | 92.82907 | 5025 ft | 273 kts | 190° |
| 2026-04-27 13:41 | 56.17630 | 92.81920 | 4572 ft | 267 kts | 207° |
| 2026-04-27 13:41 | 56.15927 | 92.80600 | 4138 ft | 266 kts | 207° |
| 2026-04-27 13:41 | 56.14261 | 92.79301 | 3988 ft | 254 kts | 207° |
| 2026-04-27 13:41 | 56.12690 | 92.78062 | 3901 ft | 239 kts | 211° |
| 2026-04-27 13:42 | 56.11575 | 92.76131 | 3796 ft | 216 kts | 250° |
| 2026-04-27 13:42 | 56.11477 | 92.73581 | 3532 ft | 207 kts | 289° |
| 2026-04-27 13:42 | 56.12035 | 92.71221 | 3278 ft | 205 kts | 294° |
| 2026-04-27 13:42 | 56.12605 | 92.68885 | 3005 ft | 204 kts | 293° |
| 2026-04-27 13:43 | 56.13168 | 92.66552 | 2730 ft | 203 kts | 293° |
| 2026-04-27 13:43 | 56.13729 | 92.64220 | 2454 ft | 204 kts | 293° |
| 2026-04-27 13:43 | 56.14289 | 92.61887 | 2179 ft | 204 kts | 293° |
| 2026-04-27 13:43 | 56.14849 | 92.59552 | 1892 ft | 205 kts | 292° |
| 2026-04-27 13:44 | 56.15409 | 92.57205 | 1681 ft | 208 kts | 293° |
| 2026-04-27 13:44 | 56.16000 | 92.54707 | 2612 ft | 221 kts | 293° |
| 2026-04-27 13:44 | 56.16594 | 92.52215 | 2900 ft | 209 kts | 293° |
| 2026-04-27 13:44 | 56.17153 | 92.49845 | 3100 ft | 205 kts | 293° |
| 2026-04-27 13:45 | 56.17685 | 92.47514 | 3305 ft | 204 kts | 287° |
| 2026-04-27 13:45 | 56.17871 | 92.44957 | 3512 ft | 206 kts | 274° |
| 2026-04-27 13:45 | 56.17954 | 92.42389 | 3712 ft | 206 kts | 274° |
| 2026-04-27 13:45 | 56.18030 | 92.39735 | 3920 ft | 223 kts | 274° |
| 2026-04-27 13:46 | 56.18108 | 92.36935 | 3997 ft | 230 kts | 273° |
| 2026-04-27 13:46 | 56.18187 | 92.34068 | 4004 ft | 230 kts | 274° |
| 2026-04-27 13:46 | 56.18265 | 92.31192 | 4007 ft | 231 kts | 274° |
| 2026-04-27 13:46 | 56.18341 | 92.28298 | 4010 ft | 232 kts | 273° |
| 2026-04-27 13:47 | 56.18119 | 92.25448 | 4007 ft | 236 kts | 246° |
| 2026-04-27 13:47 | 56.16996 | 92.23322 | 4013 ft | 242 kts | 210° |
| 2026-04-27 13:47 | 56.15333 | 92.22817 | 4010 ft | 251 kts | 172° |
| 2026-04-27 13:47 | 56.13786 | 92.24270 | 4010 ft | 257 kts | 133° |
| 2026-04-27 13:48 | 56.12738 | 92.26897 | 4009 ft | 260 kts | 122° |
| 2026-04-27 13:48 | 56.11832 | 92.29709 | 4009 ft | 261 kts | 119° |
| 2026-04-27 13:48 | 56.10965 | 92.32570 | 4013 ft | 261 kts | 118° |
| 2026-04-27 13:48 | 56.10101 | 92.35425 | 4010 ft | 261 kts | 119° |
| 2026-04-27 13:49 | 56.09223 | 92.38273 | 4009 ft | 261 kts | 120° |
| 2026-04-27 13:49 | 56.08336 | 92.41108 | 4008 ft | 261 kts | 120° |
| 2026-04-27 13:49 | 56.07441 | 92.43931 | 4010 ft | 260 kts | 120° |
| 2026-04-27 13:49 | 56.06835 | 92.46960 | 4009 ft | 260 kts | 95° |
| 2026-04-27 13:50 | 56.07034 | 92.50133 | 4009 ft | 257 kts | 67° |
| 2026-04-27 13:50 | 56.07984 | 92.52773 | 4010 ft | 252 kts | 40° |
| 2026-04-27 13:50 | 56.09387 | 92.54596 | 4008 ft | 250 kts | 32° |
| 2026-04-27 13:50 | 56.10533 | 92.56946 | 4010 ft | 256 kts | 63° |
| 2026-04-27 13:51 | 56.10891 | 92.60080 | 4012 ft | 263 kts | 93° |
| 2026-04-27 13:51 | 56.10347 | 92.63200 | 4013 ft | 266 kts | 124° |
| 2026-04-27 13:51 | 56.09036 | 92.65468 | 4012 ft | 263 kts | 153° |
| 2026-04-27 13:51 | 56.07367 | 92.66787 | 4013 ft | 262 kts | 162° |
| 2026-04-27 13:52 | 56.05677 | 92.67917 | 4014 ft | 263 kts | 162° |
| 2026-04-27 13:52 | 56.03958 | 92.69039 | 4014 ft | 262 kts | 162° |
| 2026-04-27 13:52 | 56.02244 | 92.70184 | 4013 ft | 264 kts | 158° |
| 2026-04-27 13:52 | 56.00799 | 92.72181 | 4015 ft | 267 kts | 128° |
| 2026-04-27 13:53 | 55.99169 | 92.78151 | 4020 ft | 269 kts | 112° |
| 2026-04-27 13:53 | 55.98446 | 92.81223 | 4018 ft | 269 kts | 112° |
| 2026-04-27 13:53 | 55.97725 | 92.84303 | 4023 ft | 269 kts | 112° |
| 2026-04-27 13:54 | 55.97314 | 92.87526 | 4019 ft | 267 kts | 86° |
| 2026-04-27 13:54 | 55.97783 | 92.90667 | 4022 ft | 261 kts | 56° |
| 2026-04-27 13:54 | 55.99013 | 92.92936 | 4020 ft | 253 kts | 26° |
| 2026-04-27 13:54 | 56.00654 | 92.93770 | 4022 ft | 244 kts | 355° |
| 2026-04-27 13:55 | 56.02254 | 92.92999 | 4022 ft | 239 kts | 328° |
| 2026-04-27 13:55 | 56.03645 | 92.91399 | 4016 ft | 234 kts | 323° |
| 2026-04-27 13:55 | 56.04931 | 92.89784 | 4018 ft | 220 kts | 322° |
| 2026-04-27 13:55 | 56.06174 | 92.88207 | 4018 ft | 219 kts | 322° |
| 2026-04-27 13:56 | 56.07412 | 92.86632 | 4018 ft | 219 kts | 322° |
| 2026-04-27 13:56 | 56.08566 | 92.84974 | 4016 ft | 204 kts | 308° |
| 2026-04-27 13:56 | 56.09241 | 92.82820 | 4014 ft | 197 kts | 293° |
| 2026-04-27 13:56 | 56.09784 | 92.80572 | 4013 ft | 194 kts | 293° |
| 2026-04-27 13:57 | 56.10303 | 92.78426 | 4000 ft | 183 kts | 293° |
| 2026-04-27 13:57 | 56.10799 | 92.76375 | 3868 ft | 177 kts | 293° |
| 2026-04-27 13:57 | 56.11284 | 92.74369 | 3636 ft | 175 kts | 293° |
| 2026-04-27 13:57 | 56.11763 | 92.72382 | 3422 ft | 173 kts | 293° |
| 2026-04-27 13:58 | 56.12235 | 92.70425 | 3188 ft | 173 kts | 293° |
| 2026-04-27 13:58 | 56.12718 | 92.68420 | 2947 ft | 176 kts | 293° |
| 2026-04-27 13:58 | 56.13183 | 92.66486 | 2730 ft | 160 kts | 293° |
| 2026-04-27 13:58 | 56.13612 | 92.64715 | 2500 ft | 149 kts | 292° |
| 2026-04-27 13:59 | 56.14007 | 92.63058 | 2304 ft | 139 kts | 292° |
| 2026-04-27 13:59 | 56.14385 | 92.61489 | 2138 ft | 137 kts | 292° |
| 2026-04-27 13:59 | 56.14759 | 92.59927 | 1934 ft | 136 kts | 292° |
| 2026-04-27 13:59 | 56.15134 | 92.58362 | 1730 ft | 137 kts | 292° |
| 2026-04-27 14:00 | 56.15510 | 92.56792 | 1538 ft | 138 kts | 293° |
| 2026-04-27 14:00 | 56.15891 | 92.55200 | 1365 ft | 139 kts | 294° |
| 2026-04-27 14:00 | 56.16272 | 92.53604 | 1176 ft | 140 kts | 293° |
| 2026-04-27 14:00 | 56.16657 | 92.52002 | 1009 ft | 140 kts | 292° |
| 2026-04-27 14:01 | 56.17018 | 92.50446 | 952 ft | 123 kts | 293° |
| 2026-04-27 14:01 | 56.17300 | 92.49293 | 949 ft | 76 kts | 294° |
| 2026-04-27 14:01 | 56.17437 | 92.48794 | 950 ft | 22 kts | 316° |
| 2026-04-27 14:01 | 56.17566 | 92.48607 | 951 ft | 26 kts | 324° |
| 2026-04-27 14:02 | 56.17612 | 92.48546 | 951 ft | 0 kts | 323° |
| 2026-04-27 14:03 | 56.17649 | 92.48497 | 950 ft | 11 kts | 323° |
| 2026-04-27 14:03 | 56.17713 | 92.48414 | 950 ft | 10 kts | 328° |
| 2026-04-27 14:04 | 56.17773 | 92.48411 | 951 ft | 8 kts | 17° |
| 2026-04-27 14:04 | 56.17824 | 92.48447 | 949 ft | 7 kts | 23° |
| 2026-04-27 14:04 | 56.17866 | 92.48479 | 951 ft | 6 kts | 22° |
| 2026-04-27 14:04 | 56.17901 | 92.48504 | 951 ft | 5 kts | 21° |
| 2026-04-27 14:05 | 56.17930 | 92.48525 | 951 ft | 4 kts | 22° |
| 2026-04-27 14:05 | 56.17941 | 92.48533 | 951 ft | 0 kts | 22° |